createdAt,value
2017-11-22T00:00:25.985Z,2.60
2017-11-22T00:02:54.236Z,2.22
2017-11-22T00:05:21.687Z,2.70
2017-11-22T00:07:49.147Z,2.00
2017-11-22T00:10:16.617Z,2.37
2017-11-22T00:12:44.067Z,2.22
2017-11-22T00:15:11.575Z,2.75
2017-11-22T00:17:39.037Z,2.65
2017-11-22T00:20:06.513Z,2.05
2017-11-22T00:22:34.739Z,2.10
2017-11-22T00:25:02.197Z,2.00
2017-11-22T00:27:29.665Z,2.33
2017-11-22T00:29:57.127Z,2.03
2017-11-22T00:32:24.596Z,2.60
2017-11-22T00:34:52.039Z,2.83
2017-11-22T00:37:19.534Z,2.00
2017-11-22T00:39:47.775Z,2.00
2017-11-22T00:42:15.242Z,2.20
2017-11-22T00:44:42.704Z,1.83
2017-11-22T00:47:10.166Z,2.10
2017-11-22T00:49:37.627Z,2.15
2017-11-22T00:52:05.092Z,2.12
2017-11-22T00:54:32.559Z,2.55
2017-11-22T00:57:00.016Z,2.58
2017-11-22T00:59:27.494Z,2.47
2017-11-22T01:01:54.964Z,1.92
2017-11-22T01:04:22.457Z,2.45
2017-11-22T01:06:49.918Z,1.87
2017-11-22T01:09:17.408Z,2.78
2017-11-22T01:11:44.856Z,2.25
2017-11-22T01:14:12.379Z,2.30
2017-11-22T01:16:39.838Z,2.87
2017-11-22T01:19:07.301Z,2.30
2017-11-22T01:21:34.769Z,2.50
2017-11-22T01:24:02.238Z,1.80
2017-11-22T01:26:29.712Z,1.77
2017-11-22T01:28:57.185Z,2.10
2017-11-22T01:31:25.422Z,2.65
2017-11-22T01:33:52.920Z,2.03
2017-11-22T01:36:21.193Z,2.33
2017-11-22T01:38:49.413Z,2.20
2017-11-22T01:41:16.908Z,2.15
2017-11-22T01:43:44.366Z,2.45
2017-11-22T01:46:11.839Z,1.70
2017-11-22T01:48:40.079Z,2.28
2017-11-22T01:51:07.540Z,2.03
2017-11-22T01:53:35.009Z,2.47
2017-11-22T01:56:02.462Z,1.70
2017-11-22T01:58:29.959Z,2.25
2017-11-22T02:00:58.207Z,1.83
2017-11-22T02:03:25.665Z,2.12
2017-11-22T02:05:53.148Z,1.90
2017-11-22T02:08:20.591Z,2.20
2017-11-22T02:10:48.076Z,2.08
2017-11-22T02:13:15.531Z,2.60
2017-11-22T02:15:43.005Z,2.00
2017-11-22T02:18:10.459Z,1.73
2017-11-22T02:20:37.941Z,2.30
2017-11-22T02:23:05.412Z,2.30
2017-11-22T02:25:32.891Z,2.22
2017-11-22T02:28:00.352Z,1.55
2017-11-22T02:30:27.840Z,1.77
2017-11-22T02:32:56.090Z,2.03
2017-11-22T02:35:23.578Z,2.25
2017-11-22T02:37:51.040Z,2.17
2017-11-22T02:40:18.500Z,2.00
2017-11-22T02:42:45.966Z,1.65
2017-11-22T02:45:13.427Z,1.80
2017-11-22T02:47:40.906Z,1.90
2017-11-22T02:50:08.356Z,1.42
2017-11-22T02:52:35.827Z,2.05
2017-11-22T02:55:03.288Z,2.00
2017-11-22T02:57:30.753Z,1.87
2017-11-22T02:59:58.217Z,1.75
2017-11-22T03:02:25.684Z,2.12
2017-11-22T03:04:53.144Z,1.80
2017-11-22T03:07:20.611Z,2.00
2017-11-22T03:09:48.081Z,1.98
2017-11-22T03:12:16.308Z,1.85
2017-11-22T03:14:43.761Z,2.53
2017-11-22T03:17:11.229Z,1.70
2017-11-22T03:19:38.692Z,1.90
2017-11-22T03:22:06.158Z,1.73
2017-11-22T03:24:33.647Z,2.20
2017-11-22T03:27:01.886Z,1.80
2017-11-22T03:29:29.355Z,2.33
2017-11-22T03:31:56.829Z,2.70
2017-11-22T03:34:24.320Z,2.65
2017-11-22T03:36:51.780Z,1.90
2017-11-22T03:39:19.241Z,2.20
2017-11-22T03:41:46.699Z,2.22
2017-11-22T03:44:14.164Z,2.15
2017-11-22T03:46:41.638Z,2.10
2017-11-22T03:49:15.628Z,1.92
2017-11-22T03:51:48.703Z,1.77
2017-11-22T03:54:16.940Z,2.20
2017-11-22T03:56:44.392Z,2.08
2017-11-22T03:59:11.868Z,2.40
2017-11-22T04:01:45.296Z,2.70
2017-11-22T04:04:12.771Z,2.10
2017-11-22T04:06:40.241Z,2.12
2017-11-22T04:09:07.739Z,2.10
2017-11-22T04:11:35.215Z,2.22
2017-11-22T04:14:03.465Z,2.17
2017-11-22T04:16:44.294Z,1.80
2017-11-22T04:19:17.507Z,2.20
2017-11-22T04:21:45.419Z,2.47
2017-11-22T04:24:13.731Z,1.90
2017-11-22T04:26:41.191Z,2.40
2017-11-22T04:29:08.764Z,1.70
2017-11-22T04:31:47.819Z,2.30
2017-11-22T04:34:16.151Z,2.17
2017-11-22T04:36:43.623Z,2.20
2017-11-22T04:39:12.634Z,2.00
2017-11-22T04:41:40.809Z,1.65
2017-11-22T04:44:08.305Z,1.83
2017-11-22T04:46:36.337Z,1.65
2017-11-22T04:49:04.818Z,2.47
2017-11-22T04:51:32.303Z,2.12
2017-11-22T04:54:00.579Z,1.75
2017-11-22T04:59:11.573Z,1.87
2017-11-22T05:01:39.866Z,2.22
2017-11-22T05:04:08.264Z,2.03
2017-11-22T05:06:35.767Z,2.00
2017-11-22T05:09:03.279Z,1.92
2017-11-22T05:11:31.621Z,2.20
2017-11-22T05:14:10.058Z,1.85
2017-11-22T05:16:37.525Z,2.17
2017-11-22T05:19:05.000Z,1.83
2017-11-22T05:21:32.509Z,1.90
2017-11-22T05:23:59.987Z,1.73
2017-11-22T05:26:28.190Z,2.35
2017-11-22T05:28:55.661Z,1.60
2017-11-22T05:31:23.173Z,1.75
2017-11-22T05:33:52.416Z,1.90
2017-11-22T05:36:19.877Z,2.22
2017-11-22T05:39:00.045Z,1.92
2017-11-22T05:41:38.433Z,2.03
2017-11-22T05:44:06.664Z,1.70
2017-11-22T05:46:34.896Z,1.60
2017-11-22T05:49:07.704Z,2.53
2017-11-22T05:51:42.641Z,1.90
2017-11-22T05:54:10.098Z,2.05
2017-11-22T05:56:37.619Z,1.70
2017-11-22T05:59:07.280Z,2.20
2017-11-22T06:01:34.931Z,2.10
2017-11-22T06:04:02.810Z,1.83
2017-11-22T06:06:30.263Z,1.80
2017-11-22T06:09:03.440Z,1.70
2017-11-22T06:11:30.969Z,1.77
2017-11-22T06:14:00.148Z,2.00
2017-11-22T06:16:29.286Z,2.20
2017-11-22T06:19:01.447Z,2.22
2017-11-22T06:21:40.831Z,1.60
2017-11-22T06:24:08.373Z,2.20
2017-11-22T06:26:35.828Z,2.55
2017-11-22T06:29:03.313Z,2.20
2017-11-22T06:31:30.780Z,1.60
2017-11-22T06:33:58.256Z,2.58
2017-11-22T06:36:26.469Z,1.70
2017-11-22T06:38:53.933Z,2.10
2017-11-22T06:41:21.385Z,2.05
2017-11-22T06:43:48.851Z,2.00
2017-11-22T06:46:16.342Z,2.05
2017-11-22T06:48:43.821Z,2.03
2017-11-22T06:51:12.028Z,1.87
2017-11-22T06:53:39.488Z,2.00
2017-11-22T06:56:06.966Z,2.10
2017-11-22T06:58:34.432Z,1.90
2017-11-22T07:01:11.838Z,2.33
2017-11-22T07:03:45.072Z,1.90
2017-11-22T07:06:12.514Z,2.10
2017-11-22T07:08:40.748Z,2.12
2017-11-22T07:11:08.236Z,1.90
2017-11-22T07:13:35.919Z,2.12
2017-11-22T07:16:06.035Z,1.90
2017-11-22T07:18:34.256Z,2.10
2017-11-22T07:21:01.738Z,1.67
2017-11-22T07:23:29.200Z,2.00
2017-11-22T07:25:56.652Z,2.12
2017-11-22T07:28:24.145Z,1.87
2017-11-22T07:30:52.369Z,1.80
2017-11-22T07:33:19.812Z,2.60
2017-11-22T07:35:52.983Z,2.00
2017-11-22T07:38:20.431Z,2.00
2017-11-22T07:40:48.710Z,1.90
2017-11-22T07:43:16.994Z,1.95
2017-11-22T07:45:45.255Z,2.20
2017-11-22T07:48:15.323Z,2.00
2017-11-22T07:50:45.657Z,1.65
2017-11-22T07:53:13.122Z,1.92
2017-11-22T07:55:40.591Z,2.03
2017-11-22T07:58:08.053Z,1.85
2017-11-22T08:00:35.528Z,2.78
2017-11-22T08:03:08.742Z,2.17
2017-11-22T08:05:36.212Z,2.40
2017-11-22T08:08:03.729Z,2.47
2017-11-22T08:10:31.165Z,2.60
2017-11-22T08:12:58.645Z,1.75
2017-11-22T08:15:26.133Z,1.95
2017-11-22T08:17:53.634Z,1.75
2017-11-22T08:20:21.845Z,1.90
2017-11-22T08:22:49.339Z,2.03
2017-11-22T08:25:16.787Z,2.20
2017-11-22T08:27:44.266Z,2.30
2017-11-22T08:30:11.719Z,1.50
2017-11-22T08:32:39.180Z,2.17
2017-11-22T08:35:06.632Z,1.77
2017-11-22T08:37:34.095Z,1.85
2017-11-22T08:40:01.602Z,1.90
2017-11-22T08:42:30.903Z,1.58
2017-11-22T08:44:58.353Z,1.30
2017-11-22T08:47:25.820Z,1.30
2017-11-22T08:49:53.296Z,1.30
2017-11-22T08:52:20.776Z,1.40
2017-11-22T08:54:53.825Z,1.50
2017-11-22T08:57:27.044Z,1.70
2017-11-22T09:00:00.198Z,1.50
2017-11-22T09:02:27.673Z,1.55
2017-11-22T09:04:55.125Z,1.85
2017-11-22T09:07:24.380Z,2.00
2017-11-22T09:09:51.887Z,2.15
2017-11-22T09:12:24.964Z,1.80
2017-11-22T09:14:55.823Z,2.42
2017-11-22T09:17:30.620Z,2.20
2017-11-22T09:19:58.093Z,1.77
2017-11-22T09:22:25.545Z,1.80
2017-11-22T09:25:08.262Z,1.73
2017-11-22T09:27:41.498Z,1.75
2017-11-22T09:30:12.989Z,1.92
2017-11-22T09:32:40.487Z,1.60
2017-11-22T09:35:07.983Z,1.77
2017-11-22T09:37:35.460Z,1.80
2017-11-22T09:40:02.928Z,1.95
2017-11-22T09:42:30.387Z,2.28
2017-11-22T09:44:57.888Z,1.52
2017-11-22T09:47:26.116Z,1.77
2017-11-22T09:49:53.594Z,2.30
2017-11-22T09:52:21.081Z,1.70
2017-11-22T09:54:48.556Z,1.92
2017-11-22T09:57:16.035Z,2.22
2017-11-22T09:59:43.564Z,1.73
2017-11-22T10:02:11.032Z,1.50
2017-11-22T10:04:38.551Z,1.55
2017-11-22T10:07:06.008Z,1.60
2017-11-22T10:09:33.467Z,2.87
2017-11-22T10:12:00.953Z,1.75
2017-11-22T10:14:28.416Z,1.90
2017-11-22T10:17:02.281Z,1.67
2017-11-22T10:19:35.406Z,2.50
2017-11-22T10:22:03.669Z,2.20
2017-11-22T10:24:33.035Z,1.60
2017-11-22T10:29:56.317Z,1.80
2017-11-22T10:32:26.727Z,1.70
2017-11-22T10:34:54.212Z,1.90
2017-11-22T10:37:21.688Z,1.92
2017-11-22T10:39:49.157Z,1.67
2017-11-22T10:42:16.635Z,1.67
2017-11-22T10:44:44.880Z,1.77
2017-11-22T10:47:12.449Z,1.80
2017-11-22T10:49:39.921Z,2.10
2017-11-22T10:52:07.394Z,2.00
2017-11-22T10:54:35.632Z,1.80
2017-11-22T10:57:03.105Z,2.28
2017-11-22T10:59:30.597Z,1.45
2017-11-22T11:01:58.077Z,1.55
2017-11-22T11:04:25.549Z,1.90
2017-11-22T11:06:53.026Z,1.58
2017-11-22T11:09:20.513Z,2.75
2017-11-22T11:11:47.993Z,1.87
2017-11-22T11:14:15.458Z,2.22
2017-11-22T11:16:42.985Z,1.40
2017-11-22T11:19:11.223Z,1.50
2017-11-22T11:21:38.699Z,1.50
2017-11-22T11:24:06.169Z,1.70
2017-11-22T11:26:33.646Z,2.30
2017-11-22T11:29:01.893Z,1.85
2017-11-22T11:31:29.362Z,2.25
2017-11-22T11:33:56.829Z,1.90
2017-11-22T11:36:32.842Z,2.00
2017-11-22T11:39:00.322Z,1.50
2017-11-22T11:41:27.785Z,1.67
2017-11-22T11:43:55.266Z,2.05
2017-11-22T11:46:23.497Z,1.70
2017-11-22T11:48:50.974Z,2.30
2017-11-22T11:51:18.453Z,1.62
2017-11-22T11:53:46.694Z,2.10
2017-11-22T11:56:14.227Z,1.70
2017-11-22T11:58:41.760Z,1.60
2017-11-22T12:01:09.232Z,1.60
2017-11-22T12:03:36.711Z,1.50
2017-11-22T12:06:04.178Z,1.50
2017-11-22T12:08:31.676Z,1.67
2017-11-22T12:10:59.933Z,1.83
2017-11-22T12:13:27.417Z,1.65
2017-11-22T12:15:55.659Z,1.30
2017-11-22T12:18:23.121Z,1.65
2017-11-22T12:20:53.548Z,1.40
2017-11-22T12:23:24.850Z,1.12
2017-11-22T12:25:52.334Z,2.05
2017-11-22T12:28:19.818Z,1.45
2017-11-22T12:30:48.104Z,2.05
2017-11-22T12:33:16.344Z,1.45
2017-11-22T12:35:43.821Z,2.10
2017-11-22T12:38:11.301Z,1.58
2017-11-22T12:40:39.593Z,2.10
2017-11-22T12:43:07.052Z,1.70
2017-11-22T12:45:34.528Z,1.40
2017-11-22T12:48:02.007Z,2.05
2017-11-22T12:50:29.502Z,1.45
2017-11-22T12:52:57.744Z,1.40
2017-11-22T12:55:25.229Z,1.95
2017-11-22T12:57:53.629Z,1.50
2017-11-22T13:00:22.674Z,1.50
2017-11-22T13:02:50.923Z,1.58
2017-11-22T13:05:18.397Z,1.60
2017-11-22T13:07:45.875Z,1.30
2017-11-22T13:10:14.117Z,1.30
2017-11-22T13:12:41.597Z,1.37
2017-11-22T13:15:09.077Z,1.90
2017-11-22T13:17:37.346Z,1.35
2017-11-22T13:20:04.814Z,1.85
2017-11-22T13:22:32.316Z,2.05
2017-11-22T13:24:59.894Z,1.65
2017-11-22T13:27:27.377Z,1.80
2017-11-22T13:29:54.853Z,2.05
2017-11-22T13:32:22.338Z,2.00
2017-11-22T13:34:49.817Z,2.03
2017-11-22T13:37:17.301Z,2.97
2017-11-22T13:39:44.760Z,1.65
2017-11-22T13:42:12.234Z,1.85
2017-11-22T13:44:39.704Z,2.40
2017-11-22T13:47:07.942Z,1.87
2017-11-22T13:49:35.413Z,1.37
2017-11-22T13:52:02.893Z,2.40
2017-11-22T13:54:31.145Z,2.45
2017-11-22T13:56:58.613Z,2.08
2017-11-22T13:59:28.213Z,2.15
2017-11-22T14:01:55.720Z,2.45
2017-11-22T14:04:23.189Z,2.22
2017-11-22T14:06:51.018Z,2.15
2017-11-22T14:09:19.269Z,2.10
2017-11-22T14:11:47.406Z,1.40
2017-11-22T14:14:14.882Z,1.75
2017-11-22T14:16:42.352Z,2.35
2017-11-22T14:19:09.832Z,1.90
2017-11-22T14:21:37.306Z,1.60
2017-11-22T14:24:05.550Z,2.05
2017-11-22T14:26:33.014Z,1.62
2017-11-22T14:29:00.486Z,1.50
2017-11-22T14:31:28.749Z,1.55
2017-11-22T14:33:56.303Z,2.30
2017-11-22T14:36:23.769Z,2.60
2017-11-22T14:38:51.245Z,2.70
2017-11-22T14:41:19.504Z,2.72
2017-11-22T14:43:47.012Z,2.20
2017-11-22T14:46:14.486Z,3.10
2017-11-22T14:48:41.957Z,3.08
2017-11-22T14:51:09.435Z,2.45
2017-11-22T14:53:36.929Z,2.55
2017-11-22T14:56:04.405Z,3.37
2017-11-22T14:58:31.869Z,3.55
2017-11-22T15:00:59.478Z,3.20
2017-11-22T15:03:26.950Z,2.55
2017-11-22T15:05:55.185Z,2.15
2017-11-22T15:08:22.653Z,2.40
2017-11-22T15:10:50.162Z,1.95
2017-11-22T15:13:17.653Z,2.20
2017-11-22T15:15:45.632Z,1.90
2017-11-22T15:18:13.767Z,2.03
2017-11-22T15:20:41.228Z,1.67
2017-11-22T15:23:08.703Z,1.98
2017-11-22T15:25:36.176Z,1.98
2017-11-22T15:28:03.646Z,2.20
2017-11-22T15:30:31.114Z,2.72
2017-11-22T15:32:58.589Z,2.62
2017-11-22T15:35:26.933Z,2.37
2017-11-22T15:37:54.426Z,2.80
2017-11-22T15:40:22.667Z,2.00
2017-11-22T15:42:50.143Z,2.42
2017-11-22T15:45:17.597Z,2.35
2017-11-22T15:47:45.072Z,2.55
2017-11-22T15:50:13.325Z,2.62
2017-11-22T15:52:41.074Z,5.25
2017-11-22T15:55:08.591Z,2.85
2017-11-22T15:57:36.611Z,2.95
2017-11-22T16:00:05.012Z,3.05
2017-11-22T16:02:33.277Z,2.80
2017-11-22T16:05:00.740Z,2.87
2017-11-22T16:07:28.217Z,3.60
2017-11-22T16:09:56.452Z,3.25
2017-11-22T16:12:23.929Z,3.25
2017-11-22T16:14:52.173Z,3.25
2017-11-22T16:17:19.637Z,3.10
2017-11-22T16:19:47.095Z,3.28
2017-11-22T16:22:14.558Z,3.58
2017-11-22T16:24:42.089Z,3.50
2017-11-22T16:27:09.549Z,3.85
2017-11-22T16:29:37.407Z,3.35
2017-11-22T16:32:04.915Z,3.83
2017-11-22T16:34:32.428Z,3.65
2017-11-22T16:36:59.889Z,3.80
2017-11-22T16:39:27.360Z,3.55
2017-11-22T16:42:04.837Z,3.72
2017-11-22T16:44:32.302Z,3.62
2017-11-22T16:46:59.773Z,3.90
2017-11-22T16:49:27.791Z,4.32
2017-11-22T16:51:56.296Z,4.75
2017-11-22T16:54:23.766Z,4.53
2017-11-22T16:56:51.595Z,4.30
2017-11-22T16:59:19.826Z,4.85
2017-11-22T17:01:47.328Z,4.32
2017-11-22T17:04:15.604Z,4.30
2017-11-22T17:06:43.874Z,5.37
2017-11-22T17:09:12.162Z,4.50
2017-11-22T17:11:40.046Z,3.95
2017-11-22T17:14:07.594Z,5.32
2017-11-22T17:16:35.066Z,4.80
2017-11-22T17:19:02.593Z,4.53
2017-11-22T17:21:30.868Z,4.78
2017-11-22T17:23:59.134Z,4.60
2017-11-22T17:26:26.602Z,4.20
2017-11-22T17:28:54.834Z,4.10
2017-11-22T17:31:22.339Z,3.50
2017-11-22T17:33:50.635Z,3.50
2017-11-22T17:36:18.157Z,3.47
2017-11-22T17:38:45.654Z,4.00
2017-11-22T17:41:13.163Z,3.65
2017-11-22T17:43:40.659Z,3.20
2017-11-22T17:46:08.927Z,2.95
2017-11-22T17:48:36.435Z,3.15
2017-11-22T17:51:04.009Z,4.03
2017-11-22T17:53:31.739Z,3.90
2017-11-22T17:56:04.658Z,4.20
2017-11-22T17:58:32.168Z,3.95
2017-11-22T18:00:59.946Z,4.00
2017-11-22T18:03:27.429Z,4.03
2017-11-22T18:05:54.984Z,4.50
2017-11-22T18:08:22.492Z,4.18
2017-11-22T18:10:50.807Z,4.20
2017-11-22T18:13:18.292Z,5.32
2017-11-22T18:15:45.774Z,3.60
2017-11-22T18:18:14.060Z,3.60
2017-11-22T18:20:42.335Z,4.15
2017-11-22T18:23:10.610Z,3.78
2017-11-22T18:25:38.836Z,3.30
2017-11-22T18:28:06.305Z,4.32
2017-11-22T18:30:35.067Z,4.32
2017-11-22T18:33:02.603Z,3.72
2017-11-22T18:35:30.116Z,3.90
2017-11-22T18:37:57.623Z,5.05
2017-11-22T18:40:25.081Z,4.25
2017-11-22T18:42:52.557Z,3.90
2017-11-22T18:45:20.051Z,5.03
2017-11-22T18:47:47.517Z,4.37
2017-11-22T18:50:15.013Z,4.50
2017-11-22T18:52:42.532Z,4.45
2017-11-22T18:55:10.019Z,4.95
2017-11-22T18:57:38.355Z,4.22
2017-11-22T19:00:05.860Z,3.87
2017-11-22T19:02:33.387Z,4.20
2017-11-22T19:05:00.883Z,4.18
2017-11-22T19:07:28.353Z,3.90
2017-11-22T19:09:55.917Z,3.85
2017-11-22T19:12:23.452Z,3.50
2017-11-22T19:14:51.698Z,3.72
2017-11-22T19:17:19.219Z,3.37
2017-11-22T19:19:46.759Z,3.90
2017-11-22T19:22:14.250Z,3.60
2017-11-22T19:24:41.754Z,3.42
2017-11-22T19:27:10.025Z,3.60
2017-11-22T19:29:38.317Z,4.57
2017-11-22T19:32:06.585Z,4.30
2017-11-22T19:34:34.868Z,3.33
2017-11-22T19:37:02.392Z,3.90
2017-11-22T19:39:29.925Z,3.83
2017-11-22T19:41:57.457Z,4.35
2017-11-22T19:44:24.964Z,4.75
2017-11-22T19:46:52.502Z,4.68
2017-11-22T19:49:19.967Z,4.75
2017-11-22T19:51:47.499Z,4.95
2017-11-22T19:54:15.028Z,4.57
2017-11-22T19:56:43.320Z,5.47
2017-11-22T19:59:11.583Z,4.62
2017-11-22T20:01:39.851Z,4.70
2017-11-22T20:04:07.347Z,4.65
2017-11-22T20:06:34.868Z,5.05
2017-11-22T20:09:03.168Z,5.45
2017-11-22T20:11:32.173Z,4.87
2017-11-22T20:13:59.711Z,5.28
2017-11-22T20:16:27.219Z,5.10
2017-11-22T20:18:54.767Z,4.43
2017-11-22T20:21:22.249Z,4.87
2017-11-22T20:23:49.773Z,4.35
2017-11-22T20:26:17.275Z,5.25
2017-11-22T20:28:44.792Z,4.72
2017-11-22T20:31:12.302Z,4.70
2017-11-22T20:33:39.811Z,4.93
2017-11-22T20:36:07.315Z,4.82
2017-11-22T20:38:34.829Z,6.45
2017-11-22T20:41:02.305Z,5.55
2017-11-22T20:43:29.794Z,5.72
2017-11-22T20:45:57.930Z,5.85
2017-11-22T20:48:25.701Z,5.45
2017-11-22T20:50:53.222Z,6.28
2017-11-22T20:53:21.462Z,6.97
2017-11-22T20:55:48.955Z,6.57
2017-11-22T20:58:17.181Z,6.43
2017-11-22T21:00:44.688Z,6.03
2017-11-22T21:03:12.973Z,6.72
2017-11-22T21:05:40.433Z,6.60
2017-11-22T21:08:07.977Z,6.22
2017-11-22T21:10:36.264Z,5.68
2017-11-22T21:13:04.584Z,6.28
2017-11-22T21:15:32.087Z,6.30
2017-11-22T21:18:00.392Z,6.32
2017-11-22T21:20:27.900Z,5.78
2017-11-22T21:22:55.405Z,5.97
2017-11-22T21:25:22.925Z,6.05
2017-11-22T21:27:50.429Z,6.05
2017-11-22T21:30:17.952Z,6.12
2017-11-22T21:32:46.285Z,6.30
2017-11-22T21:35:13.808Z,6.15
2017-11-22T21:37:42.186Z,5.97
2017-11-22T21:40:10.468Z,6.55
2017-11-22T21:42:37.974Z,6.35
2017-11-22T21:45:05.499Z,5.15
2017-11-22T21:47:33.083Z,5.57
2017-11-22T21:50:00.609Z,5.37
2017-11-22T21:52:28.129Z,4.90
2017-11-22T21:54:55.643Z,5.75
2017-11-22T21:57:23.108Z,5.10
2017-11-22T21:59:50.607Z,5.30
2017-11-22T22:02:18.119Z,5.15
2017-11-22T22:04:45.673Z,6.10
2017-11-22T22:07:13.214Z,5.65
2017-11-22T22:09:40.666Z,5.32
2017-11-22T22:12:09.054Z,5.40
2017-11-22T22:14:36.670Z,5.85
2017-11-22T22:17:04.205Z,5.18
2017-11-22T22:19:31.711Z,5.03
2017-11-22T22:21:59.990Z,4.15
2017-11-22T22:24:28.208Z,4.53
2017-11-22T22:26:55.719Z,4.93
2017-11-22T22:29:23.945Z,4.70
2017-11-22T22:31:51.447Z,4.30
2017-11-22T22:34:18.900Z,5.30
2017-11-22T22:36:46.723Z,5.20
2017-11-22T22:39:14.198Z,4.80
2017-11-22T22:41:42.432Z,4.68
2017-11-22T22:44:10.131Z,5.03
2017-11-22T22:46:38.255Z,4.78
2017-11-22T22:49:06.488Z,5.00
2017-11-22T22:51:33.950Z,4.55
2017-11-22T22:54:02.797Z,4.60
2017-11-22T22:56:31.114Z,4.78
2017-11-22T22:59:00.246Z,5.07
2017-11-22T23:01:27.743Z,4.95
2017-11-22T23:03:55.431Z,4.80
2017-11-22T23:06:22.940Z,5.45
2017-11-22T23:08:50.422Z,5.75
2017-11-22T23:11:19.499Z,5.32
2017-11-22T23:13:47.175Z,5.85
2017-11-22T23:16:15.155Z,6.40
2017-11-22T23:18:42.832Z,5.12
2017-11-22T23:21:12.003Z,5.55
2017-11-22T23:23:39.484Z,5.80
2017-11-22T23:26:06.949Z,5.32
2017-11-22T23:28:34.472Z,5.20
2017-11-22T23:31:01.953Z,4.70
2017-11-22T23:33:29.422Z,4.97
2017-11-22T23:35:56.890Z,5.25
2017-11-22T23:38:24.357Z,5.05
2017-11-22T23:40:51.832Z,5.05
2017-11-22T23:43:20.075Z,4.37
2017-11-22T23:45:47.537Z,4.12
2017-11-22T23:48:15.157Z,4.80
2017-11-22T23:50:42.715Z,4.03
2017-11-22T23:53:12.458Z,4.15
2017-11-22T23:55:39.984Z,3.50
2017-11-22T23:58:07.481Z,3.08
